Time;durP1;ratioP1;P1;durP2;ratioP2;P2;SDS_P1;SDS_P2;PMS_P1;PMS_P2;Temp;Humidity;BMP_temperature;BMP_pressure;BME280_temperature;BME280_humidity;BME280_pressure;Samples;Min_cycle;Max_cycle;Signal;HPM_P1;HPM_P2
2022/05/03 00:02:20;;;;;;;0.00;0.00;;;6.90;99.90;;;;;;5014579;28;20058;-77
2022/05/03 00:05:07;;;;;;;0.00;0.00;;;6.80;99.90;;;;;;5015055;28;20053;-77
2022/05/03 00:08:02;;;;;;;1.98;0.35;;;6.80;99.90;;;;;;5015013;28;20453;-77
2022/05/03 00:10:39;;;;;;;0.00;0.00;;;6.80;99.90;;;;;;5020620;28;20595;-77
2022/05/03 00:13:19;;;;;;;0.00;0.00;;;6.90;99.90;;;;;;5113082;28;20180;-77
2022/05/03 00:15:45;;;;;;;0.00;0.00;;;6.80;99.90;;;;;;5113130;28;20047;-77
2022/05/03 00:18:12;;;;;;;0.00;0.00;;;6.90;99.90;;;;;;5112799;28;20040;-77
2022/05/03 00:20:39;;;;;;;0.00;0.00;;;6.80;99.90;;;;;;5112586;28;20543;-78
2022/05/03 00:23:05;;;;;;;0.13;0.00;;;6.80;99.90;;;;;;5095681;28;20143;-77
2022/05/03 00:25:32;;;;;;;0.03;0.00;;;6.80;99.90;;;;;;5095774;28;20044;-77
2022/05/03 00:28:00;;;;;;;0.00;0.00;;;6.70;99.90;;;;;;5112681;28;20437;-77
2022/05/03 00:30:27;;;;;;;0.00;0.00;;;6.70;99.90;;;;;;5115859;28;20558;-77
2022/05/03 00:32:54;;;;;;;0.00;0.00;;;6.70;99.90;;;;;;5099693;28;20147;-77
2022/05/03 00:35:21;;;;;;;0.00;0.00;;;6.70;99.90;;;;;;5116391;28;20455;-77
2022/05/03 00:37:47;;;;;;;0.00;0.00;;;6.60;99.90;;;;;;5116406;28;20040;-77
2022/05/03 00:40:17;;;;;;;0.25;0.20;;;6.60;99.90;;;;;;5115979;28;20088;-77
2022/05/03 00:43:09;;;;;;;0.00;0.00;;;6.50;99.90;;;;;;5116179;28;20446;-77
2022/05/03 00:45:38;;;;;;;0.00;0.00;;;6.40;99.90;;;;;;5099497;28;20052;-77
2022/05/03 00:48:37;;;;;;;0.00;0.00;;;6.40;99.90;;;;;;5099220;28;20058;-78
2022/05/03 00:51:08;;;;;;;0.00;0.00;;;6.30;99.90;;;;;;5116921;28;20483;-77
2022/05/03 00:53:46;;;;;;;0.00;0.00;;;6.40;99.90;;;;;;5116722;28;20092;-78
2022/05/03 00:56:27;;;;;;;0.00;0.00;;;6.40;99.90;;;;;;5116232;28;20131;-78
2022/05/03 00:59:30;;;;;;;0.00;0.00;;;6.40;99.90;;;;;;5098891;28;20426;-77
2022/05/03 01:02:00;;;;;;;0.15;0.15;;;6.30;99.90;;;;;;5098964;28;20047;-77
2022/05/03 01:04:26;;;;;;;0.00;0.00;;;6.30;99.90;;;;;;5098810;28;20047;-77
2022/05/03 01:06:57;;;;;;;0.00;0.00;;;6.30;99.90;;;;;;5115868;28;20130;-77
2022/05/03 01:10:02;;;;;;;0.00;0.00;;;6.20;99.90;;;;;;5115628;28;20415;-77
2022/05/03 01:13:05;;;;;;;0.20;0.00;;;6.10;99.90;;;;;;5040741;28;20060;-78
2022/05/03 01:15:33;;;;;;;0.00;0.00;;;6.20;99.90;;;;;;5057392;28;20283;-77
2022/05/03 01:18:04;;;;;;;0.20;0.00;;;6.10;99.90;;;;;;5039940;28;20389;-77
2022/05/03 01:20:41;;;;;;;0.00;0.00;;;6.10;99.90;;;;;;5040239;28;20036;-77
2022/05/03 01:23:29;;;;;;;0.00;0.00;;;6.10;99.90;;;;;;5057286;28;20405;-77
2022/05/03 01:26:10;;;;;;;1.55;0.00;;;6.00;99.90;;;;;;5040557;28;20110;-77
2022/05/03 01:28:59;;;;;;;0.00;0.00;;;5.90;99.90;;;;;;5057209;28;20057;-77
2022/05/03 01:31:28;;;;;;;0.03;0.03;;;5.90;99.90;;;;;;5039657;28;20143;-77
2022/05/03 01:34:01;;;;;;;0.00;0.00;;;5.90;99.90;;;;;;5040462;28;20045;-77
2022/05/03 01:36:49;;;;;;;0.10;0.00;;;5.80;99.90;;;;;;5057095;28;20057;-77
2022/05/03 01:39:41;;;;;;;0.00;0.00;;;5.90;99.90;;;;;;4974645;28;20055;-77
2022/05/03 01:42:17;;;;;;;0.00;0.00;;;5.90;99.90;;;;;;4975038;28;20054;-78
2022/05/03 01:44:57;;;;;;;0.00;0.00;;;5.90;99.90;;;;;;4974916;28;20153;-78
2022/05/03 01:47:25;;;;;;;0.00;0.00;;;5.80;99.90;;;;;;4958765;28;20137;-77
2022/05/03 01:50:20;;;;;;;0.00;0.00;;;5.90;99.90;;;;;;4999076;28;20099;-78
2022/05/03 01:53:05;;;;;;;0.52;0.00;;;5.90;99.90;;;;;;5017136;28;20060;-78
2022/05/03 01:55:59;;;;;;;0.00;0.00;;;5.90;99.90;;;;;;5000477;28;20060;-77
2022/05/03 01:58:39;;;;;;;0.00;0.00;;;5.80;99.90;;;;;;5017148;28;20041;-77
2022/05/03 02:01:40;;;;;;;0.00;0.00;;;5.80;99.90;;;;;;5016419;28;20127;-78
2022/05/03 02:04:14;;;;;;;0.00;0.00;;;5.60;99.90;;;;;;4997725;28;20050;-78
2022/05/03 02:06:40;;;;;;;0.00;0.00;;;5.70;99.90;;;;;;5013442;28;20119;-78
2022/05/03 02:09:06;;;;;;;0.63;0.13;;;5.60;99.90;;;;;;5013269;28;20493;-78
2022/05/03 02:11:56;;;;;;;0.00;0.00;;;5.50;99.90;;;;;;4996877;28;20444;-78
2022/05/03 02:14:46;;;;;;;0.00;0.00;;;5.50;99.90;;;;;;5013120;28;20548;-78
2022/05/03 02:17:24;;;;;;;0.00;0.00;;;5.40;99.90;;;;;;5083525;28;20052;-78
2022/05/03 02:20:08;;;;;;;0.00;0.00;;;5.40;99.90;;;;;;5096650;28;20472;-78
2022/05/03 02:22:59;;;;;;;0.00;0.00;;;5.50;99.90;;;;;;5079579;28;20146;-78
2022/05/03 02:25:35;;;;;;;0.05;0.05;;;5.40;99.90;;;;;;5096423;28;20134;-78
2022/05/03 02:28:26;;;;;;;0.00;0.00;;;5.40;99.90;;;;;;5096333;28;20056;-78
2022/05/03 02:30:54;;;;;;;0.10;0.03;;;5.40;99.90;;;;;;5078883;28;20059;-77
2022/05/03 02:33:49;;;;;;;0.20;0.20;;;5.40;99.90;;;;;;5079142;28;20161;-78
2022/05/03 02:36:17;;;;;;;0.00;0.00;;;5.30;99.90;;;;;;5032732;28;20100;-78
2022/05/03 02:39:04;;;;;;;0.10;0.10;;;5.30;99.90;;;;;;5016064;28;20132;-77
2022/05/03 02:41:39;;;;;;;0.30;0.00;;;5.30;99.90;;;;;;5015845;28;20049;-77
2022/05/03 02:44:05;;;;;;;;;;;5.30;99.90;;;;;;5016341;28;20103;-78
2022/05/03 02:46:49;;;;;;;0.00;0.00;;;5.30;99.90;;;;;;5015833;28;19921;-78
2022/05/03 02:49:19;;;;;;;0.00;0.00;;;5.20;99.90;;;;;;5016083;28;20053;-78
2022/05/03 02:52:06;;;;;;;0.00;0.00;;;5.20;99.90;;;;;;5015228;28;20099;-78
2022/05/03 02:55:11;;;;;;;0.00;0.00;;;5.20;99.90;;;;;;5015950;28;20049;-78
2022/05/03 02:58:04;;;;;;;1.00;0.63;;;5.20;99.90;;;;;;4998886;28;20063;-78
2022/05/03 03:03:40;;;;;;;0.00;0.00;;;5.10;99.90;;;;;;5015718;28;20533;-78
2022/05/03 03:06:16;;;;;;;0.00;0.00;;;5.00;99.90;;;;;;4999688;28;20057;-78
2022/05/03 03:08:44;;;;;;;0.90;0.20;;;4.90;99.90;;;;;;5015718;28;20505;-78
2022/05/03 03:11:49;;;;;;;0.55;0.20;;;4.90;99.90;;;;;;5015366;28;20049;-78
2022/05/03 03:14:24;;;;;;;0.00;0.00;;;5.00;99.90;;;;;;5055127;28;20056;-78
2022/05/03 03:16:54;;;;;;;0.00;0.00;;;5.00;99.90;;;;;;5055608;28;20053;-78
2022/05/03 03:19:28;;;;;;;0.00;0.00;;;5.00;99.90;;;;;;5054880;28;20040;-78
2022/05/03 03:21:57;;;;;;;0.00;0.00;;;5.00;99.90;;;;;;5055183;28;20048;-78
2022/05/03 03:24:25;;;;;;;0.10;0.00;;;5.00;99.90;;;;;;5055096;28;20064;-78
2022/05/03 03:26:52;;;;;;;0.00;0.00;;;5.00;99.90;;;;;;5054751;28;20484;-78
2022/05/03 03:29:19;;;;;;;0.10;0.10;;;4.90;99.90;;;;;;5055395;28;20459;-78
2022/05/03 03:31:48;;;;;;;0.00;0.00;;;4.90;99.90;;;;;;5054318;28;20052;-78
2022/05/03 03:34:14;;;;;;;0.00;0.00;;;5.00;99.90;;;;;;5054755;28;20052;-78
2022/05/03 03:36:42;;;;;;;0.00;0.00;;;4.90;99.90;;;;;;5054907;28;20063;-78
2022/05/03 03:39:08;;;;;;;0.00;0.00;;;4.90;99.90;;;;;;5054832;28;20087;-78
2022/05/03 03:41:33;;;;;;;0.20;0.00;;;4.80;99.90;;;;;;5054648;28;20083;-78
2022/05/03 03:43:59;;;;;;;0.00;0.00;;;4.80;99.90;;;;;;5055269;28;20056;-78
2022/05/03 03:46:25;;;;;;;0.03;0.00;;;4.80;99.90;;;;;;5054621;28;20181;-78
2022/05/03 03:48:51;;;;;;;0.00;0.00;;;4.80;99.90;;;;;;5059010;28;20196;-78
2022/05/03 03:51:18;;;;;;;0.10;0.10;;;4.80;99.90;;;;;;5112972;28;20510;-78
2022/05/03 03:53:45;;;;;;;0.00;0.00;;;4.80;99.90;;;;;;5096011;28;20067;-78
2022/05/03 03:56:11;;;;;;;0.00;0.00;;;4.80;99.90;;;;;;5096091;28;20052;-78
2022/05/03 03:58:37;;;;;;;0.57;0.35;;;4.80;99.90;;;;;;5112944;28;20425;-78
2022/05/03 04:01:03;;;;;;;0.00;0.00;;;4.70;99.90;;;;;;5112678;28;20074;-78
2022/05/03 04:03:29;;;;;;;0.00;0.00;;;4.80;99.90;;;;;;5113021;28;20044;-78
2022/05/03 04:05:55;;;;;;;0.00;0.00;;;4.80;99.90;;;;;;5099914;28;20047;-78
2022/05/03 04:08:21;;;;;;;0.00;0.00;;;4.80;99.90;;;;;;5099605;28;20059;-78
2022/05/03 04:10:49;;;;;;;0.00;0.00;;;4.80;99.90;;;;;;5099778;28;20097;-78
2022/05/03 04:13:14;;;;;;;0.10;0.10;;;4.80;99.90;;;;;;5117432;28;20072;-78
2022/05/03 04:15:40;;;;;;;0.00;0.00;;;4.80;99.90;;;;;;5099994;28;20146;-78
2022/05/03 04:18:07;;;;;;;0.00;0.00;;;4.80;99.90;;;;;;5116894;28;20094;-78
2022/05/03 04:20:34;;;;;;;0.00;0.00;;;4.80;99.90;;;;;;5116607;28;20047;-78
2022/05/03 04:23:00;;;;;;;0.00;0.00;;;4.80;99.90;;;;;;5099576;28;20040;-78
2022/05/03 04:25:25;;;;;;;0.47;0.00;;;4.80;99.90;;;;;;5116487;28;20089;-78
2022/05/03 04:27:51;;;;;;;0.10;0.10;;;4.80;99.90;;;;;;5117199;28;20093;-78
2022/05/03 04:30:17;;;;;;;0.00;0.00;;;4.80;99.90;;;;;;5116289;28;20050;-78
2022/05/03 04:32:43;;;;;;;0.00;0.00;;;4.90;99.90;;;;;;5116480;28;20051;-78
2022/05/03 04:35:09;;;;;;;0.00;0.00;;;4.90;99.90;;;;;;5116255;28;20490;-78
2022/05/03 04:37:35;;;;;;;0.00;0.00;;;4.90;99.90;;;;;;5099543;28;20055;-78
2022/05/03 04:40:01;;;;;;;0.00;0.00;;;4.90;99.90;;;;;;5115904;28;20483;-78
2022/05/03 04:42:27;;;;;;;0.00;0.00;;;5.00;99.90;;;;;;5116524;28;20051;-78
2022/05/03 04:44:52;;;;;;;0.15;0.15;;;4.90;99.90;;;;;;5116205;28;20413;-78
2022/05/03 04:47:18;;;;;;;0.00;0.00;;;5.00;99.90;;;;;;5116624;28;20043;-78
2022/05/03 04:49:44;;;;;;;1.17;0.10;;;5.00;99.90;;;;;;5115961;28;20376;-78
2022/05/03 04:52:10;;;;;;;0.00;0.00;;;5.10;99.90;;;;;;5099221;28;20101;-78
2022/05/03 04:54:36;;;;;;;0.00;0.00;;;5.20;99.90;;;;;;5099006;28;20127;-78
2022/05/03 04:57:05;;;;;;;0.00;0.00;;;5.20;99.90;;;;;;5115930;28;20104;-78
2022/05/03 04:59:31;;;;;;;0.00;0.00;;;5.20;99.90;;;;;;5099294;28;20135;-78
2022/05/03 05:01:57;;;;;;;0.00;0.00;;;5.20;99.90;;;;;;5115572;28;20130;-78
2022/05/03 05:04:22;;;;;;;0.20;0.20;;;5.30;99.90;;;;;;5098783;28;20059;-78
2022/05/03 05:06:48;;;;;;;0.00;0.00;;;5.40;99.90;;;;;;5098756;28;20089;-78
2022/05/03 05:09:14;;;;;;;0.30;0.10;;;5.40;99.90;;;;;;5099121;28;20427;-78
2022/05/03 05:11:39;;;;;;;0.00;0.00;;;5.50;99.90;;;;;;5116266;28;20491;-78
2022/05/03 05:14:05;;;;;;;0.00;0.00;;;5.60;99.90;;;;;;5115396;28;20044;-78
2022/05/03 05:16:31;;;;;;;0.00;0.00;;;5.70;99.90;;;;;;5098251;28;20054;-78
2022/05/03 05:18:56;;;;;;;0.00;0.00;;;5.70;99.90;;;;;;5115446;28;20181;-78
2022/05/03 05:21:22;;;;;;;0.00;0.00;;;5.80;99.90;;;;;;5115617;28;20047;-78
2022/05/03 05:23:49;;;;;;;0.00;0.00;;;5.90;99.90;;;;;;5115491;28;20035;-78
2022/05/03 05:26:15;;;;;;;0.28;0.20;;;5.90;99.90;;;;;;5098394;28;20108;-78
2022/05/03 05:28:40;;;;;;;0.00;0.00;;;6.00;99.90;;;;;;5115328;28;20047;-78
2022/05/03 05:31:06;;;;;;;0.45;0.45;;;6.00;99.90;;;;;;5115326;28;20044;-78
2022/05/03 05:33:32;;;;;;;0.00;0.00;;;6.10;99.90;;;;;;5098169;28;20059;-78
2022/05/03 05:35:58;;;;;;;0.85;0.30;;;6.20;99.90;;;;;;5098359;28;20040;-78
2022/05/03 05:38:24;;;;;;;0.00;0.00;;;6.40;99.90;;;;;;5115185;28;20364;-78
2022/05/03 05:40:52;;;;;;;0.00;0.00;;;6.40;99.90;;;;;;5114645;28;20096;-77
2022/05/03 05:43:17;;;;;;;0.00;0.00;;;6.50;99.90;;;;;;5115087;28;20483;-77
2022/05/03 05:45:44;;;;;;;0.00;0.00;;;6.50;99.90;;;;;;5097863;28;20069;-78
2022/05/03 05:48:12;;;;;;;0.00;0.00;;;6.70;99.90;;;;;;5098143;28;20044;-78
2022/05/03 05:50:38;;;;;;;0.00;0.00;;;6.60;99.90;;;;;;5114850;28;20483;-78
2022/05/03 05:55:48;;;;;;;0.10;0.00;;;6.90;99.90;;;;;;5115072;28;20138;-78
2022/05/03 05:58:13;;;;;;;0.00;0.00;;;7.00;99.90;;;;;;5114869;28;20127;-78
2022/05/03 06:00:39;;;;;;;0.65;0.05;;;7.00;99.90;;;;;;5114434;28;20479;-78
2022/05/03 06:03:07;;;;;;;0.00;0.00;;;7.10;99.90;;;;;;5097602;28;20051;-78
2022/05/03 06:05:33;;;;;;;0.68;0.20;;;7.20;99.90;;;;;;5114611;28;20044;-78
2022/05/03 06:08:00;;;;;;;0.00;0.00;;;7.30;99.90;;;;;;5114661;28;20051;-78
2022/05/03 06:10:26;;;;;;;0.28;0.22;;;7.50;99.90;;;;;;5114554;28;20055;-78
2022/05/03 06:12:53;;;;;;;0.20;0.20;;;7.60;99.90;;;;;;5097364;28;20483;-78
2022/05/03 06:15:21;;;;;;;0.30;0.30;;;7.70;99.90;;;;;;5113917;28;20051;-78
2022/05/03 06:17:47;;;;;;;0.00;0.00;;;7.90;99.90;;;;;;5097420;28;20058;-78
2022/05/03 06:20:13;;;;;;;0.22;0.22;;;8.10;99.90;;;;;;5097461;28;20048;-78
2022/05/03 06:22:41;;;;;;;2.25;0.63;;;8.30;99.90;;;;;;5114845;28;20095;-78
2022/05/03 06:25:08;;;;;;;0.20;0.20;;;8.50;99.90;;;;;;5114346;28;20097;-78
2022/05/03 06:27:38;;;;;;;0.43;0.10;;;8.70;99.90;;;;;;5113811;28;20043;-78
2022/05/03 06:30:05;;;;;;;0.10;0.00;;;8.90;99.90;;;;;;5097479;28;20054;-78
2022/05/03 06:32:37;;;;;;;0.80;0.80;;;9.10;99.90;;;;;;5096965;28;20043;-78
2022/05/03 06:35:03;;;;;;;0.40;0.40;;;9.40;99.90;;;;;;5114312;28;20051;-78
2022/05/03 06:37:29;;;;;;;0.40;0.30;;;9.50;99.90;;;;;;5113964;28;20039;-78
2022/05/03 06:39:55;;;;;;;0.40;0.40;;;9.70;99.90;;;;;;5113743;28;20460;-78
2022/05/03 06:42:20;;;;;;;0.95;0.43;;;9.90;99.90;;;;;;5096806;28;20128;-78
2022/05/03 06:44:47;;;;;;;0.40;0.10;;;10.10;99.90;;;;;;5113715;28;20112;-78
2022/05/03 06:47:13;;;;;;;0.40;0.40;;;10.20;99.90;;;;;;5113528;28;20044;-78
2022/05/03 06:49:38;;;;;;;5.13;1.35;;;10.50;99.90;;;;;;5113907;28;20043;-78
2022/05/03 06:52:04;;;;;;;1.48;0.10;;;10.60;99.90;;;;;;5113924;28;20044;-78
2022/05/03 06:54:30;;;;;;;3.00;0.82;;;10.80;99.90;;;;;;5113794;28;20047;-78
2022/05/03 06:56:55;;;;;;;0.93;0.90;;;11.00;99.90;;;;;;5096517;28;20060;-78
2022/05/03 06:59:21;;;;;;;0.32;0.10;;;11.10;99.90;;;;;;5113507;28;20070;-78
2022/05/03 07:01:47;;;;;;;0.00;0.00;;;11.20;99.90;;;;;;5113223;28;20051;-78
2022/05/03 07:04:12;;;;;;;1.75;0.65;;;11.30;99.90;;;;;;5096170;28;20051;-78
2022/05/03 07:06:38;;;;;;;0.20;0.20;;;11.40;99.90;;;;;;5113544;28;20047;-78
2022/05/03 07:09:04;;;;;;;0.30;0.30;;;11.60;99.90;;;;;;5113376;28;20082;-78
2022/05/03 07:11:29;;;;;;;0.38;0.38;;;11.70;99.90;;;;;;5113688;28;20043;-78
2022/05/03 07:13:55;;;;;;;0.35;0.35;;;11.80;99.90;;;;;;5113344;28;20054;-78
2022/05/03 07:16:21;;;;;;;0.65;0.43;;;11.90;99.90;;;;;;5096787;28;20051;-78
2022/05/03 07:24:14;;;;;;;1.08;1.00;;;11.90;99.90;;;;;;5113346;28;20058;-79
2022/05/03 07:26:40;;;;;;;0.00;0.00;;;11.90;99.90;;;;;;5112889;28;20399;-79
2022/05/03 07:29:07;;;;;;;0.45;0.45;;;11.80;99.90;;;;;;5112857;28;20039;-79
2022/05/03 07:31:32;;;;;;;0.15;0.10;;;11.70;99.90;;;;;;5113110;28;20075;-78
2022/05/03 07:33:58;;;;;;;1.10;0.75;;;11.70;99.90;;;;;;5113276;28;20510;-78
2022/05/03 07:36:27;;;;;;;1.45;0.80;;;11.70;99.90;;;;;;5113169;28;20487;-79
2022/05/03 07:38:53;;;;;;;1.65;0.60;;;11.60;99.90;;;;;;5096088;28;20044;-78
2022/05/03 07:41:18;;;;;;;0.30;0.15;;;11.60;99.90;;;;;;5112558;28;20168;-78
2022/05/03 07:43:44;;;;;;;0.20;0.20;;;11.70;99.90;;;;;;5095981;28;20406;-78
2022/05/03 07:46:10;;;;;;;0.17;0.17;;;11.70;99.90;;;;;;5113139;28;20039;-79
2022/05/03 07:48:35;;;;;;;0.03;0.03;;;11.80;99.90;;;;;;5112677;28;20052;-78
2022/05/03 07:51:01;;;;;;;1.27;0.90;;;11.90;99.90;;;;;;5096313;28;20146;-78
2022/05/03 07:53:27;;;;;;;0.57;0.35;;;11.90;99.90;;;;;;5095931;28;20043;-78
2022/05/03 07:55:53;;;;;;;0.85;0.35;;;11.90;99.90;;;;;;5112717;28;20044;-78
2022/05/03 07:58:19;;;;;;;0.57;0.10;;;11.90;99.90;;;;;;5096098;28;20054;-78
2022/05/03 08:00:45;;;;;;;0.63;0.63;;;11.90;99.90;;;;;;5112895;28;20095;-78
2022/05/03 08:03:13;;;;;;;0.50;0.30;;;11.80;99.90;;;;;;5113096;28;20399;-78
2022/05/03 08:05:39;;;;;;;0.40;0.40;;;11.70;99.90;;;;;;5112423;28;20506;-78
2022/05/03 08:08:05;;;;;;;0.77;0.77;;;11.70;99.90;;;;;;5112994;28;20135;-78
2022/05/03 08:10:30;;;;;;;2.75;1.02;;;11.70;99.90;;;;;;5112749;28;20131;-79
2022/05/03 08:12:56;;;;;;;1.15;0.98;;;11.70;99.90;;;;;;5112974;28;20100;-78
2022/05/03 08:15:22;;;;;;;1.95;1.05;;;11.70;99.90;;;;;;5112924;28;20075;-79
2022/05/03 08:17:48;;;;;;;0.70;0.70;;;11.60;99.90;;;;;;5112882;28;20520;-78
2022/05/03 08:20:15;;;;;;;5.28;2.55;;;11.70;99.90;;;;;;5112790;28;20042;-79
2022/05/03 08:22:41;;;;;;;1.75;0.65;;;11.60;99.90;;;;;;5112805;28;20066;-79
2022/05/03 08:25:07;;;;;;;1.13;0.65;;;11.60;99.90;;;;;;5112923;28;20082;-79
2022/05/03 08:27:36;;;;;;;1.00;1.00;;;11.60;99.90;;;;;;5095779;28;20052;-78
2022/05/03 08:30:03;;;;;;;0.10;0.10;;;11.60;99.90;;;;;;5112767;28;20434;-79
2022/05/03 08:32:29;;;;;;;4.82;1.60;;;11.60;99.90;;;;;;5112842;28;20172;-79
2022/05/03 08:34:54;;;;;;;0.38;0.38;;;11.60;99.90;;;;;;5095728;28;20146;-78
2022/05/03 08:42:48;;;;;;;0.32;0.32;;;11.50;99.90;;;;;;5112805;28;20135;-79
2022/05/03 08:45:14;;;;;;;3.35;2.25;;;11.50;99.90;;;;;;5112856;28;20127;-79
2022/05/03 08:47:41;;;;;;;0.32;0.32;;;11.40;99.90;;;;;;5112565;28;20502;-78
2022/05/03 08:50:09;;;;;;;4.03;1.65;;;11.40;99.90;;;;;;5113630;28;20055;-78
2022/05/03 08:53:03;;;;;;;8.02;3.13;;;11.30;99.90;;;;;;5116350;28;20040;-78
2022/05/03 08:55:29;;;;;;;2.00;0.80;;;11.30;99.90;;;;;;5058064;28;20049;-78
2022/05/03 08:57:55;;;;;;;2.88;1.15;;;11.20;99.90;;;;;;5057758;28;20198;-79
2022/05/03 09:00:22;;;;;;;0.82;0.82;;;11.20;99.90;;;;;;5057130;28;20067;-78
2022/05/03 09:02:51;;;;;;;0.40;0.38;;;11.20;99.90;;;;;;5057921;28;20177;-78
2022/05/03 09:05:18;;;;;;;0.55;0.52;;;11.20;99.90;;;;;;5057598;28;20080;-78
2022/05/03 09:07:49;;;;;;;0.35;0.30;;;11.10;99.90;;;;;;5057553;28;20489;-79
2022/05/03 09:10:25;;;;;;;0.68;0.43;;;11.20;99.90;;;;;;5040416;28;20102;-79
2022/05/03 09:12:51;;;;;;;0.38;0.22;;;11.20;99.90;;;;;;5040925;28;20147;-78
2022/05/03 09:15:32;;;;;;;1.58;1.30;;;11.20;99.90;;;;;;5039904;28;20125;-78
2022/05/03 09:17:59;;;;;;;1.27;0.50;;;11.20;99.90;;;;;;5057491;28;20204;-79
2022/05/03 09:26:28;;;;;;;0.80;0.80;;;11.20;99.90;;;;;;5057327;28;20105;-78
2022/05/03 09:29:06;;;;;;;0.03;0.03;;;11.30;99.90;;;;;;5053984;28;20052;-78
2022/05/03 09:31:43;;;;;;;0.32;0.10;;;11.40;99.90;;;;;;5061806;28;20056;-78
2022/05/03 09:34:27;;;;;;;0.10;0.10;;;11.50;99.90;;;;;;5115680;28;20544;-78
2022/05/03 09:37:05;;;;;;;2.07;1.20;;;11.60;99.90;;;;;;5098515;28;20100;-79
2022/05/03 09:39:41;;;;;;;2.08;0.38;;;11.70;99.90;;;;;;5115264;28;20093;-78
2022/05/03 09:42:17;;;;;;;0.65;0.55;;;11.70;99.90;;;;;;5097839;28;20054;-78
2022/05/03 09:45:00;;;;;;;1.55;1.17;;;11.80;99.90;;;;;;5115341;28;20040;-79
2022/05/03 09:47:27;;;;;;;0.57;0.43;;;11.90;99.90;;;;;;5115115;28;20541;-79
2022/05/03 09:49:53;;;;;;;0.03;0.03;;;11.90;99.90;;;;;;5115236;28;20130;-78
2022/05/03 09:52:27;;;;;;;0.00;0.00;;;12.00;99.90;;;;;;5114958;28;20563;-78
2022/05/03 09:54:55;;;;;;;0.28;0.28;;;12.00;99.90;;;;;;5097804;28;20112;-79
2022/05/03 09:57:22;;;;;;;0.47;0.00;;;12.00;99.90;;;;;;5115334;28;20100;-78
2022/05/03 09:59:50;;;;;;;0.10;0.10;;;12.00;99.90;;;;;;5114749;28;20044;-78
2022/05/03 10:02:17;;;;;;;0.00;0.00;;;12.10;99.90;;;;;;5113182;28;20064;-78
2022/05/03 10:04:47;;;;;;;0.32;0.10;;;12.10;99.90;;;;;;5114685;28;20415;-78
2022/05/03 10:07:14;;;;;;;0.00;0.00;;;12.00;99.90;;;;;;5097832;28;20043;-78
2022/05/03 10:09:42;;;;;;;1.20;0.35;;;12.00;99.90;;;;;;5097306;28;20108;-78
2022/05/03 10:12:11;;;;;;;0.00;0.00;;;12.00;99.90;;;;;;5114751;28;20092;-78
2022/05/03 10:14:37;;;;;;;0.00;0.00;;;12.00;99.90;;;;;;5114484;28;20043;-78
2022/05/03 10:22:39;;;;;;;0.10;0.10;;;12.10;99.90;;;;;;5114218;28;20483;-78
2022/05/03 10:25:06;;;;;;;0.00;0.00;;;12.00;99.90;;;;;;5097284;28;20056;-78
2022/05/03 10:27:56;;;;;;;0.30;0.08;;;12.10;99.90;;;;;;5114290;28;20054;-78
2022/05/03 10:30:26;;;;;;;0.10;0.10;;;12.10;99.90;;;;;;5097588;28;20459;-78
2022/05/03 10:33:20;;;;;;;0.00;0.00;;;12.30;99.90;;;;;;5097186;28;20058;-78
2022/05/03 10:35:49;;;;;;;0.00;0.00;;;12.30;99.90;;;;;;5097158;28;20058;-78
2022/05/03 10:38:16;;;;;;;0.20;0.20;;;12.50;99.90;;;;;;5113931;28;20056;-78
2022/05/03 10:40:43;;;;;;;0.10;0.10;;;12.60;99.90;;;;;;5097104;28;20069;-78
2022/05/03 10:43:23;;;;;;;0.10;0.10;;;12.60;99.90;;;;;;5096975;28;20083;-78
2022/05/03 10:45:51;;;;;;;0.40;0.20;;;12.60;99.90;;;;;;5114373;28;20387;-78
2022/05/03 10:48:28;;;;;;;0.00;0.00;;;12.80;99.90;;;;;;5114095;28;20058;-78
2022/05/03 10:51:00;;;;;;;0.00;0.00;;;12.70;99.90;;;;;;5096674;28;20043;-78
2022/05/03 10:53:28;;;;;;;0.00;0.00;;;12.70;99.90;;;;;;5113751;28;20044;-78
2022/05/03 10:56:06;;;;;;;0.00;0.00;;;12.70;99.90;;;;;;5096781;28;20047;-78
2022/05/03 10:58:35;;;;;;;0.00;0.00;;;12.80;99.90;;;;;;5097111;28;20059;-78
2022/05/03 11:01:20;;;;;;;0.38;0.28;;;12.80;99.90;;;;;;5113039;28;20100;-78
2022/05/03 11:03:49;;;;;;;22.25;1.70;;;12.70;99.90;;;;;;5096807;28;20051;-78
2022/05/03 11:06:26;;;;;;;0.10;0.10;;;12.60;99.90;;;;;;5096463;28;20052;-78
2022/05/03 11:14:16;;;;;;;0.20;0.20;;;12.60;99.90;;;;;;5113097;28;20376;-78
2022/05/03 11:16:42;;;;;;;;;;;12.60;99.90;;;;;;5097054;28;20044;-78
2022/05/03 11:19:12;;;;;;;0.98;0.00;;;12.70;99.90;;;;;;5113309;28;19920;-78
2022/05/03 11:21:39;;;;;;;0.28;0.10;;;12.60;99.90;;;;;;5113612;28;20054;-78
2022/05/03 11:24:05;;;;;;;0.00;0.00;;;12.60;99.90;;;;;;5096281;28;20065;-78
2022/05/03 11:26:31;;;;;;;0.00;0.00;;;12.70;99.90;;;;;;5113118;28;20051;-78
2022/05/03 11:28:59;;;;;;;0.65;0.65;;;12.60;99.90;;;;;;5113292;28;20159;-78
2022/05/03 11:31:28;;;;;;;0.08;0.08;;;12.50;99.90;;;;;;5095838;28;20445;-78
2022/05/03 11:33:58;;;;;;;1.45;0.45;;;12.60;99.90;;;;;;5113369;28;20044;-78
2022/05/03 11:36:25;;;;;;;0.90;0.73;;;12.70;99.90;;;;;;5113124;28;20044;-78
2022/05/03 11:38:54;;;;;;;0.10;0.00;;;12.60;99.90;;;;;;5096201;28;20134;-78
2022/05/03 11:41:24;;;;;;;0.10;0.10;;;12.60;99.90;;;;;;5112822;28;20048;-78
2022/05/03 11:43:51;;;;;;;0.10;0.10;;;12.60;99.90;;;;;;5113143;28;20036;-78
2022/05/03 11:46:18;;;;;;;0.00;0.00;;;12.60;99.90;;;;;;5113036;28;20059;-78
2022/05/03 11:48:44;;;;;;;0.77;0.25;;;12.70;99.90;;;;;;5112666;28;20368;-78
2022/05/03 11:56:41;;;;;;;0.00;0.00;;;12.70;99.90;;;;;;5113048;28;19968;-78
2022/05/03 11:59:09;;;;;;;1.00;0.63;;;12.80;99.90;;;;;;5113081;28;20047;-78
2022/05/03 12:01:36;;;;;;;0.00;0.00;;;12.80;99.90;;;;;;5095391;28;20107;-78
2022/05/03 12:04:03;;;;;;;0.40;0.40;;;12.80;99.90;;;;;;5113145;28;20052;-78
2022/05/03 12:06:44;;;;;;;0.00;0.00;;;12.90;99.90;;;;;;5113038;28;20180;-78
2022/05/03 12:09:17;;;;;;;0.00;0.00;;;13.00;99.90;;;;;;5112999;28;20040;-78
2022/05/03 12:14:44;;;;;;;0.10;0.10;;;13.00;99.90;;;;;;5113101;28;20048;-78
2022/05/03 12:17:11;;;;;;;0.00;0.00;;;13.10;99.90;;;;;;5095888;28;20074;-78
2022/05/03 12:19:37;;;;;;;0.95;0.60;;;13.20;99.90;;;;;;5113060;28;20040;-78
2022/05/03 12:22:14;;;;;;;0.00;0.00;;;13.30;99.90;;;;;;5112737;28;20104;-77
2022/05/03 12:24:41;;;;;;;0.30;0.17;;;13.30;99.90;;;;;;5112841;28;20558;-78
2022/05/03 12:27:16;;;;;;;0.00;0.00;;;13.50;99.90;;;;;;5116890;28;20051;-78
2022/05/03 12:29:43;;;;;;;0.00;0.00;;;13.60;99.90;;;;;;5116818;28;20211;-78
2022/05/03 12:32:17;;;;;;;0.00;0.00;;;13.60;99.90;;;;;;5116595;28;20039;-78
2022/05/03 12:35:01;;;;;;;0.20;0.20;;;13.70;99.90;;;;;;5116692;28;20048;-78
2022/05/03 12:37:27;;;;;;;0.50;0.20;;;13.70;99.90;;;;;;5099488;28;20499;-78
2022/05/03 12:39:59;;;;;;;0.00;0.00;;;13.80;99.90;;;;;;5099754;28;20119;-78
2022/05/03 12:42:25;;;;;;;0.22;0.22;;;13.90;99.90;;;;;;5116486;28;20104;-78
2022/05/03 12:44:57;;;;;;;0.20;0.10;;;14.00;99.90;;;;;;5116412;28;20052;-78
2022/05/03 12:47:29;;;;;;;0.00;0.00;;;14.10;99.90;;;;;;5099548;28;20449;-78
2022/05/03 12:49:55;;;;;;;0.10;0.10;;;14.20;99.90;;;;;;5116465;28;20051;-78
2022/05/03 12:52:20;;;;;;;0.00;0.00;;;14.30;99.90;;;;;;5099235;28;20039;-78
2022/05/03 12:54:51;;;;;;;0.00;0.00;;;14.40;99.90;;;;;;5116224;28;20483;-78
2022/05/03 13:00:01;;;;;;;0.00;0.00;;;14.50;99.90;;;;;;5115866;28;20099;-78
2022/05/03 13:02:27;;;;;;;0.08;0.08;;;14.60;99.90;;;;;;5099015;28;20047;-78
2022/05/03 13:04:53;;;;;;;0.00;0.00;;;14.50;99.90;;;;;;5115885;28;20058;-78
2022/05/03 13:07:20;;;;;;;0.65;0.43;;;14.40;99.90;;;;;;5098771;28;20446;-77
2022/05/03 13:09:46;;;;;;;0.00;0.00;;;14.30;99.90;;;;;;5116069;28;20051;-77
2022/05/03 13:12:11;;;;;;;0.90;0.05;;;14.40;99.90;;;;;;5115673;28;20498;-78
2022/05/03 13:14:37;;;;;;;0.00;0.00;;;14.40;99.90;;;;;;5115915;28;20043;-77
2022/05/03 13:17:04;;;;;;;0.32;0.10;;;14.50;99.90;;;;;;5098746;28;20555;-77
2022/05/03 13:19:30;;;;;;;0.00;0.00;;;14.50;99.90;;;;;;5115616;28;20100;-78
2022/05/03 13:21:56;;;;;;;0.30;0.10;;;14.60;99.90;;;;;;5115618;28;20093;-78
2022/05/03 13:24:23;;;;;;;0.00;0.00;;;14.70;99.90;;;;;;5115818;28;20130;-78
2022/05/03 13:26:49;;;;;;;0.03;0.03;;;14.80;99.90;;;;;;5115539;28;20039;-78
2022/05/03 13:29:18;;;;;;;0.00;0.00;;;14.80;99.50;;;;;;5115385;28;20043;-78
2022/05/03 13:31:44;;;;;;;0.00;0.00;;;14.90;99.90;;;;;;5115508;28;20532;-78
2022/05/03 13:34:10;;;;;;;0.00;0.00;;;15.10;99.90;;;;;;5115884;28;20048;-78
2022/05/03 13:42:07;;;;;;;1.20;0.15;;;15.10;97.70;;;;;;5115486;28;20046;-78
2022/05/03 13:44:34;;;;;;;0.30;0.20;;;15.10;98.20;;;;;;5097904;28;20138;-78
2022/05/03 13:47:00;;;;;;;0.00;0.00;;;15.20;98.80;;;;;;5115089;28;20066;-78
2022/05/03 13:49:27;;;;;;;1.10;0.43;;;15.10;98.40;;;;;;5115153;28;20044;-78
2022/05/03 13:51:52;;;;;;;0.00;0.00;;;15.10;98.30;;;;;;5115055;28;20047;-78
2022/05/03 13:54:18;;;;;;;0.00;0.00;;;14.90;97.90;;;;;;5115401;28;20387;-78
2022/05/03 13:56:44;;;;;;;0.00;0.00;;;15.10;98.80;;;;;;5115657;28;20480;-78
2022/05/03 13:59:10;;;;;;;0.00;0.00;;;15.10;98.40;;;;;;5098274;28;20059;-78
2022/05/03 14:01:38;;;;;;;0.00;0.00;;;15.20;97.40;;;;;;5097634;28;20067;-78